Time;durP1;ratioP1;P1;durP2;ratioP2;P2;SDS_P1;SDS_P2;PMS_P1;PMS_P2;Temp;Humidity;BMP_temperature;BMP_pressure;BME280_temperature;BME280_humidity;BME280_pressure;Samples;Min_cycle;Max_cycle;Signal;HPM_P1;HPM_P2
2022/08/23 00:01:34;;;;;;;3.83;2.87;;;18.60;99.90;;;;;;5030993;28;20442;-74
2022/08/23 00:04:03;;;;;;;2.90;2.03;;;18.70;99.90;;;;;;5030918;28;20537;-74
2022/08/23 00:06:29;;;;;;;2.97;2.47;;;18.60;99.90;;;;;;5031456;28;20408;-74
2022/08/23 00:08:55;;;;;;;4.00;1.93;;;18.70;99.90;;;;;;5031311;28;20407;-74
2022/08/23 00:11:42;;;;;;;6.53;2.20;;;18.70;99.90;;;;;;5013528;28;21008;-74
2022/08/23 00:14:26;;;;;;;3.07;2.30;;;18.80;99.90;;;;;;5031565;28;20428;-77
2022/08/23 00:16:52;;;;;;;5.50;2.40;;;18.80;99.90;;;;;;5030016;28;20861;-78
2022/08/23 00:19:19;;;;;;;2.03;1.83;;;18.70;99.90;;;;;;5013683;28;21338;-76
2022/08/23 00:21:45;;;;;;;3.50;1.93;;;18.70;99.90;;;;;;5029883;28;20442;-77
2022/08/23 00:24:13;;;;;;;2.53;1.60;;;18.70;99.90;;;;;;5031290;28;20485;-77
2022/08/23 00:26:56;;;;;;;5.47;2.63;;;18.60;99.90;;;;;;5029637;28;20432;-77
2022/08/23 00:29:27;;;;;;;5.80;2.13;;;18.60;99.90;;;;;;5031036;28;20411;-77
2022/08/23 00:31:53;;;;;;;3.70;2.27;;;18.60;99.90;;;;;;5031085;28;20971;-74
2022/08/23 00:34:20;;;;;;;7.80;2.67;;;18.60;99.90;;;;;;5031431;28;20490;-75
2022/08/23 00:36:48;;;;;;;10.23;2.20;;;18.60;99.90;;;;;;5030234;28;20599;-75
2022/08/23 00:39:14;;;;;;;2.97;2.23;;;18.60;99.90;;;;;;5032244;28;20418;-75
2022/08/23 00:41:40;;;;;;;4.03;2.60;;;18.50;99.90;;;;;;5032249;28;20446;-75
2022/08/23 00:50:26;;;;;;;6.90;2.60;;;18.50;99.90;;;;;;5033020;28;20430;-78
2022/08/23 00:53:07;;;;;;;5.80;2.17;;;18.50;99.90;;;;;;5025760;28;20898;-78
2022/08/23 00:55:33;;;;;;;4.53;2.10;;;18.60;99.90;;;;;;5030217;28;20422;-77
2022/08/23 00:58:00;;;;;;;3.37;2.57;;;18.70;99.90;;;;;;5029933;28;20449;-78
2022/08/23 01:00:28;;;;;;;9.20;2.40;;;18.70;99.90;;;;;;5028758;28;20877;-78
2022/08/23 01:02:55;;;;;;;7.03;2.53;;;18.70;99.90;;;;;;5029688;28;20466;-77
2022/08/23 01:05:25;;;;;;;2.60;2.10;;;18.70;99.90;;;;;;5012940;28;20474;-81
2022/08/23 01:07:57;;;;;;;3.20;2.17;;;18.60;99.90;;;;;;5030017;28;21254;-78
2022/08/23 01:10:39;;;;;;;2.03;1.77;;;18.40;99.90;;;;;;5028346;28;20442;-77
2022/08/23 01:13:19;;;;;;;3.33;2.23;;;18.30;99.90;;;;;;5029442;28;20428;-77
2022/08/23 01:15:58;;;;;;;7.83;2.37;;;18.30;99.90;;;;;;5029849;28;20494;-77
2022/08/23 01:18:27;;;;;;;3.00;1.93;;;18.40;99.90;;;;;;5028062;28;20431;-77
2022/08/23 01:21:01;;;;;;;4.73;2.33;;;18.50;99.90;;;;;;5029703;28;20419;-77
2022/08/23 01:23:44;;;;;;;3.30;2.30;;;18.60;99.90;;;;;;5029293;28;20473;-77
2022/08/23 01:26:10;;;;;;;3.03;2.13;;;18.60;99.80;;;;;;5029179;28;20509;-77
2022/08/23 01:28:38;;;;;;;8.33;2.30;;;18.60;99.90;;;;;;5029314;28;20418;-77
2022/08/23 01:31:04;;;;;;;4.60;3.37;;;18.60;99.90;;;;;;5029598;28;20451;-77
2022/08/23 01:33:30;;;;;;;3.90;2.03;;;18.50;99.90;;;;;;5029279;28;20497;-77
2022/08/23 01:35:57;;;;;;;3.53;2.20;;;18.60;99.90;;;;;;5029027;28;20430;-76
2022/08/23 01:38:24;;;;;;;7.67;1.93;;;18.70;99.90;;;;;;5027553;28;20426;-76
2022/08/23 01:40:50;;;;;;;2.73;2.43;;;18.70;99.90;;;;;;5028353;28;20936;-79
2022/08/23 01:43:18;;;;;;;3.30;2.27;;;18.60;99.90;;;;;;5028358;28;20441;-81
2022/08/23 01:45:45;;;;;;;7.03;2.30;;;18.60;99.90;;;;;;5012543;28;21003;-81
2022/08/23 01:48:11;;;;;;;4.33;2.20;;;18.40;99.90;;;;;;5029397;28;20419;-77
2022/08/23 01:50:37;;;;;;;4.40;2.17;;;18.30;99.90;;;;;;5029217;28;20453;-77
2022/08/23 01:53:03;;;;;;;3.63;1.87;;;18.30;99.90;;;;;;5029229;28;20488;-80
2022/08/23 01:55:29;;;;;;;2.63;2.43;;;18.30;99.90;;;;;;5027632;28;20192;-75
2022/08/23 01:57:58;;;;;;;3.40;2.20;;;18.20;99.90;;;;;;5027173;28;20238;-75
2022/08/23 02:00:29;;;;;;;3.20;1.97;;;18.20;99.90;;;;;;5028831;28;20930;-74
2022/08/23 02:02:55;;;;;;;2.20;2.00;;;18.10;99.90;;;;;;5028734;28;20442;-74
2022/08/23 02:05:21;;;;;;;2.90;2.20;;;18.10;99.90;;;;;;5028964;28;21035;-74
2022/08/23 02:07:47;;;;;;;2.57;2.03;;;18.10;99.90;;;;;;5028869;28;20425;-74
2022/08/23 02:10:13;;;;;;;3.53;2.10;;;18.10;99.90;;;;;;5028884;28;20433;-75
2022/08/23 02:12:40;;;;;;;2.53;1.90;;;18.10;99.90;;;;;;5027517;28;20456;-75
2022/08/23 02:15:06;;;;;;;5.37;3.37;;;18.10;99.90;;;;;;5028701;28;21092;-77
2022/08/23 02:17:32;;;;;;;3.73;1.97;;;18.00;99.90;;;;;;5028908;28;20454;-76
2022/08/23 02:19:57;;;;;;;3.20;1.90;;;18.00;99.90;;;;;;5028675;28;20522;-76
2022/08/23 02:22:23;;;;;;;5.87;2.23;;;18.00;99.90;;;;;;5027369;28;20530;-75
2022/08/23 02:24:49;;;;;;;2.00;1.80;;;18.00;99.90;;;;;;5027413;28;20211;-75
2022/08/23 02:27:17;;;;;;;6.47;2.70;;;17.90;99.90;;;;;;5029724;28;20204;-76
2022/08/23 02:29:45;;;;;;;3.13;2.13;;;17.90;99.90;;;;;;5032815;28;20423;-76
2022/08/23 02:32:13;;;;;;;9.07;2.00;;;17.90;99.90;;;;;;5028760;28;20952;-76
2022/08/23 02:34:39;;;;;;;3.70;2.90;;;17.90;99.90;;;;;;5028672;28;20916;-78
2022/08/23 02:37:08;;;;;;;2.57;2.37;;;18.00;99.90;;;;;;5031371;28;20802;-78
2022/08/23 02:39:34;;;;;;;4.30;2.13;;;18.00;99.90;;;;;;5029350;28;20442;-78
2022/08/23 02:42:00;;;;;;;2.80;1.80;;;17.90;99.90;;;;;;5027079;28;20531;-75
2022/08/23 02:44:25;;;;;;;7.70;2.20;;;17.80;99.90;;;;;;5010253;28;20491;-75
2022/08/23 02:46:51;;;;;;;3.73;2.20;;;17.80;99.90;;;;;;5028191;28;20187;-74
2022/08/23 02:49:17;;;;;;;3.60;2.13;;;17.80;99.90;;;;;;5026904;28;20242;-74
2022/08/23 02:51:45;;;;;;;3.57;2.20;;;17.80;99.90;;;;;;5028540;28;20209;-79
2022/08/23 02:54:11;;;;;;;4.10;2.53;;;17.70;99.90;;;;;;5030515;28;20433;-78
2022/08/23 02:56:36;;;;;;;3.20;2.30;;;17.70;99.90;;;;;;5031074;28;20458;-78
2022/08/23 02:59:03;;;;;;;4.77;2.43;;;17.60;99.90;;;;;;5032936;28;20257;-78
2022/08/23 03:01:33;;;;;;;6.30;2.60;;;17.60;99.90;;;;;;5032210;28;20214;-78
2022/08/23 03:03:59;;;;;;;4.20;1.97;;;17.50;99.90;;;;;;5030493;28;20921;-78
2022/08/23 03:06:26;;;;;;;4.07;2.60;;;17.50;99.90;;;;;;5032342;28;20421;-77
2022/08/23 03:08:53;;;;;;;2.93;2.63;;;17.50;99.90;;;;;;5031888;28;20419;-77
2022/08/23 03:11:20;;;;;;;5.03;3.20;;;17.40;99.90;;;;;;5031989;28;20420;-77
2022/08/23 03:13:47;;;;;;;6.23;2.70;;;17.30;99.90;;;;;;5030357;28;20540;-78
2022/08/23 03:16:14;;;;;;;2.90;2.60;;;17.20;99.90;;;;;;5031882;28;20429;-77
2022/08/23 03:18:40;;;;;;;4.20;2.70;;;17.10;99.90;;;;;;4997555;28;20434;-77
2022/08/23 03:21:08;;;;;;;4.43;2.60;;;17.10;99.90;;;;;;5031562;28;20986;-76
2022/08/23 03:23:34;;;;;;;6.60;2.67;;;17.00;99.90;;;;;;5030037;28;20447;-76
2022/08/23 03:26:02;;;;;;;3.30;2.93;;;16.90;99.90;;;;;;5031468;28;20513;-76
2022/08/23 03:28:28;;;;;;;7.97;3.20;;;16.80;99.90;;;;;;5031496;28;20821;-76
2022/08/23 03:30:55;;;;;;;4.70;2.93;;;16.70;99.90;;;;;;5031490;28;20771;-75
2022/08/23 03:33:21;;;;;;;3.60;3.30;;;16.70;99.90;;;;;;5031415;28;20481;-77
2022/08/23 03:35:47;;;;;;;4.13;3.20;;;16.50;99.90;;;;;;5031312;28;20429;-78
2022/08/23 03:38:13;;;;;;;6.30;3.00;;;16.40;99.90;;;;;;5029964;28;20433;-78
2022/08/23 03:40:40;;;;;;;8.80;3.27;;;16.30;99.90;;;;;;5030045;28;20525;-78
2022/08/23 03:43:06;;;;;;;8.40;3.63;;;16.20;99.90;;;;;;5013402;28;20912;-78
2022/08/23 03:45:31;;;;;;;9.60;3.20;;;16.20;99.90;;;;;;5031315;28;20501;-78
2022/08/23 03:47:57;;;;;;;4.30;3.70;;;16.20;99.90;;;;;;5031438;28;20248;-78
2022/08/23 03:50:23;;;;;;;4.93;3.50;;;16.10;99.90;;;;;;5030434;28;20230;-78
2022/08/23 03:52:49;;;;;;;7.63;3.37;;;16.10;99.90;;;;;;5030520;28;20693;-78
2022/08/23 03:55:14;;;;;;;9.03;3.20;;;16.00;99.90;;;;;;5030552;28;20179;-78
2022/08/23 03:57:40;;;;;;;6.20;4.00;;;16.00;99.90;;;;;;5031828;28;20193;-78
2022/08/23 04:00:09;;;;;;;5.13;3.43;;;16.00;99.90;;;;;;5031772;28;20423;-78
2022/08/23 04:02:35;;;;;;;4.57;3.53;;;15.90;99.90;;;;;;5031817;28;20210;-78
2022/08/23 04:05:01;;;;;;;3.23;2.80;;;15.80;99.90;;;;;;5029784;28;20465;-77
2022/08/23 04:07:27;;;;;;;14.97;4.00;;;15.80;99.90;;;;;;5031658;28;20437;-77
2022/08/23 04:09:52;;;;;;;5.10;3.60;;;15.80;99.90;;;;;;5030026;28;20681;-77
2022/08/23 04:12:18;;;;;;;5.80;3.63;;;15.70;99.90;;;;;;5031537;28;20444;-77
2022/08/23 04:14:45;;;;;;;6.27;3.63;;;15.70;99.90;;;;;;5031580;28;20559;-77
2022/08/23 04:17:12;;;;;;;7.13;3.83;;;15.60;99.90;;;;;;5032438;28;20421;-76
2022/08/23 04:19:38;;;;;;;4.03;3.60;;;15.60;99.90;;;;;;5031996;28;20956;-76
2022/08/23 04:22:04;;;;;;;6.20;4.27;;;15.50;99.90;;;;;;5031778;28;20452;-76
2022/08/23 04:24:29;;;;;;;5.90;3.80;;;15.40;99.90;;;;;;5031872;28;20216;-76
2022/08/23 04:26:55;;;;;;;6.30;3.17;;;15.20;99.90;;;;;;5030874;28;20185;-76
2022/08/23 04:29:21;;;;;;;3.87;3.57;;;15.20;99.90;;;;;;5029236;28;20188;-76
2022/08/23 04:31:48;;;;;;;9.50;3.53;;;15.10;99.90;;;;;;4996386;28;20202;-76
2022/08/23 04:34:15;;;;;;;6.73;3.60;;;15.00;99.90;;;;;;5029082;28;20511;-76
2022/08/23 04:36:41;;;;;;;5.70;4.10;;;15.10;99.90;;;;;;5026973;28;20478;-76
2022/08/23 04:39:08;;;;;;;12.93;4.53;;;15.10;99.90;;;;;;5028538;28;20439;-76
2022/08/23 04:44:18;;;;;;;6.73;4.77;;;15.10;99.90;;;;;;5028704;28;20467;-76
2022/08/23 04:46:44;;;;;;;9.50;3.87;;;15.00;99.90;;;;;;5027074;28;20430;-76
2022/08/23 04:49:10;;;;;;;11.13;3.97;;;15.00;99.90;;;;;;5028648;28;20187;-76
2022/08/23 04:51:37;;;;;;;10.00;4.17;;;15.00;99.90;;;;;;5028555;28;20183;-76
2022/08/23 04:54:03;;;;;;;7.03;4.00;;;15.00;99.90;;;;;;5028434;28;20415;-76
2022/08/23 04:56:29;;;;;;;7.40;3.30;;;14.90;99.90;;;;;;5028026;28;20511;-76
2022/08/23 04:58:56;;;;;;;6.53;3.80;;;14.80;99.90;;;;;;5028217;28;20547;-76
2022/08/23 05:01:24;;;;;;;3.27;2.97;;;14.80;99.90;;;;;;5028445;28;21213;-76
2022/08/23 05:03:54;;;;;;;9.13;3.47;;;14.70;99.90;;;;;;5028076;28;20519;-76
2022/08/23 05:06:20;;;;;;;6.23;3.63;;;14.80;99.90;;;;;;5026992;28;20423;-76
2022/08/23 05:08:46;;;;;;;3.53;3.10;;;14.80;99.90;;;;;;5026796;28;20894;-76
2022/08/23 05:11:12;;;;;;;4.50;2.97;;;14.80;99.90;;;;;;5026831;28;20426;-76
2022/08/23 05:13:38;;;;;;;3.13;2.83;;;14.90;99.90;;;;;;5026753;28;20431;-76
2022/08/23 05:16:05;;;;;;;6.57;3.37;;;15.00;99.90;;;;;;5027347;28;20177;-76
2022/08/23 05:18:32;;;;;;;5.93;3.90;;;15.00;99.90;;;;;;5028294;28;20419;-76
2022/08/23 05:20:59;;;;;;;4.50;2.80;;;15.00;99.90;;;;;;5028583;28;20430;-75
2022/08/23 05:23:25;;;;;;;4.03;3.13;;;15.00;99.90;;;;;;5028853;28;20439;-76
2022/08/23 05:25:53;;;;;;;7.30;3.70;;;15.00;99.90;;;;;;5027040;28;20954;-75
2022/08/23 05:28:26;;;;;;;4.17;3.10;;;15.10;99.90;;;;;;5027032;28;20453;-76
2022/08/23 05:31:00;;;;;;;6.50;3.03;;;15.20;99.90;;;;;;5011143;28;20442;-75
2022/08/23 05:33:27;;;;;;;7.57;3.37;;;15.20;99.90;;;;;;5028609;28;20474;-76
2022/08/23 05:35:53;;;;;;;4.07;3.30;;;15.30;99.90;;;;;;5028299;28;20419;-76
2022/08/23 05:38:19;;;;;;;4.13;2.90;;;15.40;99.90;;;;;;5028021;28;20457;-76
2022/08/23 05:40:49;;;;;;;4.77;3.37;;;15.60;99.90;;;;;;5028274;28;20424;-76
2022/08/23 05:43:15;;;;;;;5.70;3.07;;;15.70;99.90;;;;;;5028004;28;20960;-75
2022/08/23 05:45:40;;;;;;;9.73;3.40;;;15.90;99.90;;;;;;5010221;28;20468;-76
2022/08/23 05:48:06;;;;;;;5.17;3.00;;;16.10;99.90;;;;;;5026954;28;20423;-76
2022/08/23 05:50:34;;;;;;;6.53;3.27;;;16.20;99.90;;;;;;5028062;28;20193;-76
2022/08/23 05:53:00;;;;;;;4.93;2.90;;;16.30;99.90;;;;;;5028015;28;20210;-75
2022/08/23 05:55:25;;;;;;;6.00;3.00;;;16.50;99.90;;;;;;5028701;28;20423;-76
2022/08/23 05:57:51;;;;;;;4.53;3.60;;;16.60;99.90;;;;;;5026555;28;20205;-76
2022/08/23 06:00:17;;;;;;;4.00;2.83;;;16.60;99.90;;;;;;5026706;28;20202;-76
2022/08/23 06:02:43;;;;;;;5.77;3.63;;;16.80;99.90;;;;;;5027920;28;20441;-76
2022/08/23 06:05:09;;;;;;;9.40;2.30;;;16.90;99.90;;;;;;5011132;28;20344;-75
2022/08/23 06:07:35;;;;;;;4.90;2.57;;;17.10;99.90;;;;;;5030620;28;20186;-76
2022/08/23 06:10:03;;;;;;;6.57;2.77;;;17.20;99.90;;;;;;5030749;28;20483;-77
2022/08/23 06:12:30;;;;;;;11.40;3.13;;;17.30;99.90;;;;;;5027951;28;20449;-77
2022/08/23 06:14:56;;;;;;;3.43;2.60;;;17.50;99.90;;;;;;5027668;28;20429;-77
2022/08/23 06:17:22;;;;;;;5.87;3.43;;;17.70;99.90;;;;;;5026529;28;20814;-78
2022/08/23 06:19:48;;;;;;;8.17;3.40;;;17.90;99.90;;;;;;5028672;28;20185;-77
2022/08/23 06:22:14;;;;;;;10.10;3.47;;;17.90;99.90;;;;;;5027283;28;20215;-78
2022/08/23 06:24:39;;;;;;;4.67;3.10;;;18.00;99.90;;;;;;5028915;28;20503;-77
2022/08/23 06:27:06;;;;;;;3.03;2.83;;;18.10;99.90;;;;;;5031380;28;20269;-78
2022/08/23 06:29:32;;;;;;;5.70;2.90;;;18.30;99.90;;;;;;5035578;28;20177;-78
2022/08/23 06:31:57;;;;;;;3.57;2.93;;;18.40;99.90;;;;;;5034946;28;20460;-78
2022/08/23 06:34:32;;;;;;;6.13;3.33;;;18.60;99.90;;;;;;5037277;28;20437;-77
2022/08/23 06:37:01;;;;;;;5.50;2.50;;;18.80;99.90;;;;;;5033017;28;20178;-77
2022/08/23 06:39:30;;;;;;;4.90;2.43;;;19.10;99.90;;;;;;5033197;28;20459;-73
2022/08/23 06:42:01;;;;;;;4.07;2.60;;;19.30;99.90;;;;;;5031379;28;20411;-75
2022/08/23 06:44:28;;;;;;;4.30;2.73;;;19.40;99.90;;;;;;5032001;28;20539;-74
2022/08/23 06:46:55;;;;;;;4.60;2.50;;;19.60;99.90;;;;;;5030335;28;21123;-74
2022/08/23 06:49:22;;;;;;;4.83;2.30;;;19.60;99.90;;;;;;5031778;28;20426;-74
2022/08/23 06:51:50;;;;;;;4.50;2.33;;;19.60;99.90;;;;;;5031824;28;20429;-75
2022/08/23 06:54:22;;;;;;;3.30;2.20;;;19.60;99.90;;;;;;5031716;28;20425;-74
2022/08/23 06:56:49;;;;;;;9.30;2.97;;;19.80;99.90;;;;;;5029441;28;20445;-73
2022/08/23 06:59:15;;;;;;;5.03;2.77;;;19.80;99.90;;;;;;5030764;28;20419;-74
2022/08/23 07:01:45;;;;;;;5.33;3.30;;;19.70;99.90;;;;;;5030817;28;20443;-74
2022/08/23 07:04:12;;;;;;;2.83;2.53;;;19.70;99.90;;;;;;5030312;28;20421;-74
2022/08/23 07:06:39;;;;;;;5.77;3.23;;;19.60;99.90;;;;;;5030643;28;20862;-74
2022/08/23 07:09:06;;;;;;;2.70;2.30;;;19.60;99.90;;;;;;5030518;28;20920;-74
2022/08/23 07:11:31;;;;;;;5.23;3.07;;;19.60;99.90;;;;;;5030988;28;20430;-74
2022/08/23 07:14:03;;;;;;;10.60;2.90;;;19.60;99.90;;;;;;5030064;28;20430;-74
2022/08/23 07:16:37;;;;;;;6.43;2.70;;;19.60;99.90;;;;;;5030637;28;20252;-73
2022/08/23 07:19:03;;;;;;;4.77;2.67;;;19.60;99.90;;;;;;5030130;28;20457;-74
2022/08/23 07:21:29;;;;;;;3.47;2.50;;;19.60;99.90;;;;;;5030686;28;20846;-74
2022/08/23 07:23:58;;;;;;;3.00;2.40;;;19.70;99.90;;;;;;5030597;28;20487;-76
2022/08/23 07:26:24;;;;;;;3.77;2.70;;;19.70;99.90;;;;;;5030229;28;20219;-74
2022/08/23 07:28:50;;;;;;;5.80;2.80;;;19.70;99.90;;;;;;5012930;28;20438;-74
2022/08/23 07:31:23;;;;;;;4.83;2.87;;;19.80;99.90;;;;;;5030640;28;20412;-75
2022/08/23 07:33:49;;;;;;;3.30;3.00;;;19.80;99.90;;;;;;5028925;28;20439;-74
2022/08/23 07:36:17;;;;;;;10.50;3.07;;;19.90;99.90;;;;;;5029963;28;20919;-73
2022/08/23 07:38:44;;;;;;;4.60;2.50;;;20.00;99.90;;;;;;5030610;28;20522;-73
2022/08/23 07:41:10;;;;;;;3.53;2.47;;;20.00;99.90;;;;;;5029783;28;20455;-76
2022/08/23 07:43:37;;;;;;;5.90;3.17;;;20.20;99.90;;;;;;5030122;28;20518;-74
2022/08/23 07:46:02;;;;;;;10.67;3.10;;;20.20;99.90;;;;;;5029664;28;20574;-74
2022/08/23 07:48:28;;;;;;;3.63;2.53;;;20.30;99.90;;;;;;5032541;28;21228;-74
2022/08/23 07:50:58;;;;;;;4.83;2.40;;;20.40;99.90;;;;;;5039707;28;20180;-76
2022/08/23 07:53:25;;;;;;;7.80;2.23;;;20.40;99.90;;;;;;5039647;28;20469;-75
2022/08/23 07:55:52;;;;;;;6.17;2.20;;;20.60;99.90;;;;;;5034602;28;20424;-75
2022/08/23 07:58:19;;;;;;;5.90;2.87;;;20.60;99.90;;;;;;5031379;28;20447;-74
2022/08/23 08:00:45;;;;;;;10.87;3.07;;;20.90;99.90;;;;;;5013493;28;20570;-74
2022/08/23 08:03:12;;;;;;;3.47;2.60;;;20.80;99.90;;;;;;5029570;28;20530;-74
2022/08/23 08:05:39;;;;;;;9.50;2.33;;;20.90;99.90;;;;;;5028903;28;20523;-75
2022/08/23 08:08:06;;;;;;;3.93;2.37;;;21.10;99.90;;;;;;5030205;28;20423;-74
2022/08/23 08:10:35;;;;;;;3.50;2.60;;;21.20;99.90;;;;;;5030002;28;20416;-74
2022/08/23 08:13:01;;;;;;;4.70;2.37;;;21.30;99.90;;;;;;5030703;28;20450;-74
2022/08/23 08:15:27;;;;;;;6.70;2.87;;;21.30;99.90;;;;;;5030069;28;21259;-74
2022/08/23 08:17:53;;;;;;;2.50;2.30;;;21.40;99.90;;;;;;4995739;28;20459;-74
2022/08/23 08:20:20;;;;;;;4.07;2.57;;;21.50;99.90;;;;;;5011748;28;20189;-74
2022/08/23 08:22:46;;;;;;;4.87;2.90;;;21.70;99.90;;;;;;5030007;28;20207;-73
2022/08/23 08:25:13;;;;;;;7.97;2.50;;;21.80;99.90;;;;;;5029608;28;20465;-75
2022/08/23 08:27:39;;;;;;;5.07;2.50;;;21.80;99.90;;;;;;5028429;28;20416;-75
2022/08/23 08:30:07;;;;;;;5.33;2.70;;;21.90;99.70;;;;;;5029408;28;20441;-73
2022/08/23 08:32:33;;;;;;;2.77;1.87;;;21.90;99.90;;;;;;5029588;28;20438;-74
2022/08/23 08:34:59;;;;;;;2.93;1.93;;;22.10;99.90;;;;;;5028367;28;20427;-74
2022/08/23 08:37:24;;;;;;;8.00;2.40;;;22.30;99.90;;;;;;5012185;28;20431;-75
2022/08/23 08:39:51;;;;;;;3.93;2.20;;;22.30;99.50;;;;;;5029373;28;20981;-74
2022/08/23 08:42:39;;;;;;;9.47;1.90;;;22.50;98.80;;;;;;5027673;28;20289;-75
2022/08/23 08:45:23;;;;;;;7.43;2.00;;;22.60;98.00;;;;;;5028947;28;21128;-75
2022/08/23 08:47:59;;;;;;;3.40;2.03;;;22.90;98.60;;;;;;5029175;28;20867;-74
2022/08/23 08:50:42;;;;;;;7.23;2.10;;;23.00;97.00;;;;;;5028037;28;20404;-74
2022/08/23 08:53:18;;;;;;;4.87;2.40;;;23.10;96.60;;;;;;5028860;28;20435;-74
2022/08/23 08:55:50;;;;;;;3.10;2.00;;;23.20;96.50;;;;;;5010727;28;20427;-73
2022/08/23 08:58:22;;;;;;;2.23;1.63;;;23.30;95.30;;;;;;5028684;28;20444;-76
2022/08/23 09:00:48;;;;;;;6.53;1.80;;;23.50;97.20;;;;;;5028804;28;20408;-74
2022/08/23 09:03:19;;;;;;;3.30;1.80;;;23.80;96.50;;;;;;5012297;28;20949;-75
2022/08/23 09:05:56;;;;;;;6.10;2.47;;;23.90;95.00;;;;;;5031702;28;20463;-73
2022/08/23 09:08:22;;;;;;;2.50;1.93;;;24.10;94.10;;;;;;5029297;28;20401;-75
2022/08/23 09:11:15;;;;;;;3.20;2.33;;;24.30;94.00;;;;;;5027094;28;20431;-74
2022/08/23 09:13:54;;;;;;;7.60;1.60;;;24.70;94.00;;;;;;5030216;28;20200;-73
2022/08/23 09:16:34;;;;;;;3.43;1.90;;;25.00;92.90;;;;;;5030220;28;20415;-73
2022/08/23 09:19:02;;;;;;;5.57;2.53;;;25.20;92.40;;;;;;5031436;28;20421;-73
2022/08/23 09:21:50;;;;;;;3.50;2.30;;;25.30;90.40;;;;;;5035746;28;20568;-74
2022/08/23 09:24:16;;;;;;;5.77;2.20;;;25.60;91.10;;;;;;5028762;28;20447;-75
2022/08/23 09:26:43;;;;;;;4.70;2.10;;;25.90;91.20;;;;;;5032476;28;20426;-74
2022/08/23 09:29:26;;;;;;;3.70;1.83;;;26.20;90.30;;;;;;5028620;28;20218;-75
2022/08/23 09:31:57;;;;;;;5.03;2.13;;;26.30;89.50;;;;;;5029319;28;20472;-75
2022/08/23 09:34:33;;;;;;;2.20;2.00;;;26.80;87.80;;;;;;5012166;28;20412;-75
2022/08/23 09:37:18;;;;;;;3.83;2.10;;;27.10;86.30;;;;;;5027690;28;20423;-75
2022/08/23 09:39:52;;;;;;;2.20;2.00;;;27.40;85.70;;;;;;5028657;28;21106;-75
2022/08/23 09:42:36;;;;;;;2.70;2.20;;;27.80;83.90;;;;;;5028843;28;21159;-76
2022/08/23 09:45:28;;;;;;;3.30;1.43;;;28.10;82.40;;;;;;5027192;28;21018;-74
2022/08/23 09:47:53;;;;;;;4.20;1.60;;;28.60;79.20;;;;;;5028448;28;20406;-75
2022/08/23 09:50:30;;;;;;;3.83;2.30;;;28.90;80.20;;;;;;5028789;28;20953;-75
2022/08/23 09:53:07;;;;;;;2.77;2.00;;;29.00;76.10;;;;;;5027182;28;20230;-75
2022/08/23 09:55:40;;;;;;;1.83;1.67;;;29.30;75.60;;;;;;5026444;28;20916;-75
2022/08/23 09:58:33;;;;;;;2.53;1.90;;;29.50;73.10;;;;;;5027804;28;20455;-74
2022/08/23 10:01:20;;;;;;;2.60;2.27;;;29.70;73.20;;;;;;5026409;28;20883;-75
2022/08/23 10:04:04;;;;;;;4.70;1.87;;;29.90;70.70;;;;;;5028152;28;20459;-75
2022/08/23 10:06:33;;;;;;;3.30;2.10;;;30.20;69.60;;;;;;5011841;28;20490;-75
2022/08/23 10:09:04;;;;;;;3.17;2.00;;;30.40;68.30;;;;;;5027730;28;20431;-75
2022/08/23 10:11:43;;;;;;;6.43;1.80;;;30.50;66.50;;;;;;5027982;28;20455;-75
2022/08/23 10:14:16;;;;;;;4.73;2.13;;;30.70;64.00;;;;;;5027409;28;20417;-75
2022/08/23 10:16:54;;;;;;;4.27;2.13;;;30.70;63.80;;;;;;5027603;28;20469;-75
2022/08/23 10:19:40;;;;;;;6.10;2.20;;;30.90;63.50;;;;;;5027449;28;20423;-75
2022/08/23 10:22:19;;;;;;;6.50;1.80;;;31.10;61.90;;;;;;5027193;28;21147;-75
2022/08/23 10:24:50;;;;;;;3.20;1.80;;;31.10;61.70;;;;;;5029335;28;20466;-75
2022/08/23 10:30:21;;;;;;;4.07;1.90;;;31.40;58.40;;;;;;4995901;28;20412;-75
2022/08/23 10:32:46;;;;;;;4.00;2.30;;;31.50;57.30;;;;;;5026968;28;20566;-75
2022/08/23 10:35:28;;;;;;;2.50;2.10;;;31.70;57.40;;;;;;5025619;28;20427;-76
2022/08/23 10:38:12;;;;;;;2.90;1.83;;;31.90;56.00;;;;;;5027351;28;20553;-76
2022/08/23 10:41:08;;;;;;;2.10;1.40;;;32.00;54.40;;;;;;5026143;28;20423;-76
2022/08/23 10:43:49;;;;;;;4.00;1.90;;;31.90;53.00;;;;;;5027516;28;20528;-76
2022/08/23 10:46:16;;;;;;;3.77;1.80;;;32.00;53.60;;;;;;5027891;28;20477;-77
2022/08/23 10:48:54;;;;;;;1.77;1.40;;;31.90;53.90;;;;;;5026740;28;20881;-77
2022/08/23 10:51:32;;;;;;;2.97;2.10;;;32.00;54.10;;;;;;5027918;28;20775;-76
2022/08/23 10:54:07;;;;;;;4.40;1.77;;;32.10;53.30;;;;;;5026634;28;20446;-75
2022/08/23 10:56:34;;;;;;;4.27;2.13;;;31.80;50.50;;;;;;5028336;28;20433;-75
2022/08/23 10:59:13;;;;;;;2.83;1.70;;;32.10;52.40;;;;;;5027962;28;20423;-74
2022/08/23 11:01:48;;;;;;;4.00;1.80;;;32.30;52.80;;;;;;5029592;28;20527;-76
2022/08/23 11:04:44;;;;;;;2.97;1.93;;;32.30;50.80;;;;;;5027427;28;20504;-75
2022/08/23 11:07:15;;;;;;;2.90;1.83;;;32.30;52.10;;;;;;5027971;28;20418;-75
2022/08/23 11:09:52;;;;;;;1.63;1.53;;;32.40;51.10;;;;;;5027614;28;20411;-76
2022/08/23 11:12:22;;;;;;;4.40;1.77;;;32.30;49.90;;;;;;5027447;28;20435;-75
2022/08/23 11:15:09;;;;;;;3.20;2.30;;;32.40;48.50;;;;;;5029872;28;20940;-75
2022/08/23 11:17:54;;;;;;;2.60;1.70;;;32.50;49.10;;;;;;5031216;28;20434;-76
2022/08/23 11:20:48;;;;;;;3.10;1.50;;;32.40;48.70;;;;;;5031080;28;20423;-75
2022/08/23 11:23:35;;;;;;;1.50;1.30;;;32.30;47.90;;;;;;5031332;28;20453;-76
2022/08/23 11:26:04;;;;;;;2.40;1.60;;;32.40;46.70;;;;;;5030787;28;20466;-76
2022/08/23 11:28:46;;;;;;;1.83;1.50;;;32.50;47.80;;;;;;5030820;28;20426;-75
2022/08/23 11:31:20;;;;;;;1.93;1.37;;;32.50;46.70;;;;;;5031108;28;20418;-76
2022/08/23 11:33:48;;;;;;;3.07;1.80;;;32.30;46.40;;;;;;5029155;28;20442;-75
2022/08/23 11:36:15;;;;;;;2.80;1.40;;;32.70;46.70;;;;;;5030685;28;20434;-76
2022/08/23 11:38:46;;;;;;;3.40;1.80;;;33.10;45.50;;;;;;5030593;28;20419;-75
2022/08/23 11:41:18;;;;;;;5.33;1.33;;;33.00;45.40;;;;;;5030542;28;20494;-74
2022/08/23 11:44:04;;;;;;;1.80;1.37;;;33.00;45.50;;;;;;5030351;28;20485;-76
2022/08/23 11:46:54;;;;;;;3.67;1.40;;;33.00;43.20;;;;;;5019825;28;20508;-75
2022/08/23 11:49:28;;;;;;;5.73;1.63;;;32.90;43.50;;;;;;5030592;28;20782;-75
2022/08/23 11:52:15;;;;;;;1.67;1.50;;;32.90;43.70;;;;;;5028850;28;20857;-75
2022/08/23 11:54:59;;;;;;;3.57;1.53;;;32.90;44.70;;;;;;5030187;28;20447;-75
2022/08/23 11:57:43;;;;;;;3.70;1.60;;;32.80;43.00;;;;;;5029973;28;20442;-75
2022/08/23 12:00:26;;;;;;;3.83;1.87;;;32.70;43.40;;;;;;5028249;28;20419;-75
2022/08/23 12:03:23;;;;;;;2.47;1.63;;;32.80;43.20;;;;;;5012646;28;20443;-76
2022/08/23 12:05:52;;;;;;;2.47;1.67;;;32.90;43.20;;;;;;5033895;28;20459;-75
2022/08/23 12:08:43;;;;;;;2.70;1.60;;;33.00;42.60;;;;;;5030825;28;20415;-75
2022/08/23 12:11:09;;;;;;;4.30;1.60;;;33.10;41.40;;;;;;5032445;28;20407;-76
2022/08/23 12:14:16;;;;;;;2.30;1.70;;;32.90;42.20;;;;;;5029376;28;20439;-75
2022/08/23 12:16:42;;;;;;;1.87;1.77;;;32.90;42.00;;;;;;5032945;28;20443;-76
2022/08/23 12:19:09;;;;;;;3.30;1.77;;;32.90;42.70;;;;;;5028038;28;20459;-75
2022/08/23 12:21:38;;;;;;;4.43;1.70;;;32.80;42.20;;;;;;5029573;28;20231;-75
2022/08/23 12:24:29;;;;;;;4.00;1.80;;;32.70;42.80;;;;;;5028845;28;20431;-75
2022/08/23 12:27:17;;;;;;;1.30;1.13;;;32.90;40.20;;;;;;5028970;28;20419;-75
2022/08/23 12:29:56;;;;;;;2.43;1.93;;;32.80;40.10;;;;;;5028883;28;20400;-76
2022/08/23 12:32:43;;;;;;;2.60;2.00;;;33.00;40.00;;;;;;5028813;28;20552;-75
2022/08/23 12:35:33;;;;;;;4.30;1.67;;;33.00;40.10;;;;;;5028724;28;20411;-75
2022/08/23 12:38:42;;;;;;;3.23;1.20;;;33.00;39.50;;;;;;5029281;28;20391;-75
2022/08/23 12:41:20;;;;;;;3.63;1.40;;;32.80;39.10;;;;;;5028078;28;21011;-75
2022/08/23 12:44:02;;;;;;;1.67;1.47;;;32.90;38.70;;;;;;5028239;28;20438;-75
2022/08/23 12:46:38;;;;;;;6.30;1.53;;;32.70;38.80;;;;;;5028042;28;20471;-75
2022/08/23 12:49:06;;;;;;;2.43;1.30;;;32.80;40.30;;;;;;5028194;28;20423;-74
2022/08/23 12:51:38;;;;;;;2.90;1.60;;;32.50;39.90;;;;;;5029773;28;20498;-75
2022/08/23 12:54:15;;;;;;;2.70;1.60;;;32.50;40.90;;;;;;5029392;28;20442;-76
2022/08/23 12:56:45;;;;;;;8.80;2.00;;;32.40;39.80;;;;;;5029103;28;20923;-74
2022/08/23 12:59:34;;;;;;;2.63;1.40;;;32.50;39.90;;;;;;5029768;28;20476;-75
2022/08/23 13:02:29;;;;;;;1.87;1.63;;;32.60;40.10;;;;;;5029271;28;20525;-76
2022/08/23 13:05:01;;;;;;;6.67;1.70;;;32.40;40.40;;;;;;5029066;28;20475;-75
2022/08/23 13:07:27;;;;;;;1.77;1.67;;;32.20;40.70;;;;;;5029207;28;20473;-75
2022/08/23 13:09:53;;;;;;;1.57;1.47;;;32.20;40.70;;;;;;5027058;28;20420;-75
2022/08/23 13:12:20;;;;;;;6.33;1.80;;;32.40;40.90;;;;;;5028466;28;20496;-75
2022/08/23 13:14:52;;;;;;;2.60;1.50;;;32.40;41.50;;;;;;5028730;28;20447;-76
2022/08/23 13:17:26;;;;;;;2.57;1.57;;;32.20;41.20;;;;;;5027241;28;20431;-75